createdAt,value
2022-08-19T00:02:04.498Z,99507.22
2022-08-19T00:04:37.287Z,99521.06
2022-08-19T00:07:08.564Z,99512.56
2022-08-19T00:09:35.861Z,99509.38
2022-08-19T00:12:03.470Z,99511.16
2022-08-19T00:14:32.438Z,99508.66
2022-08-19T00:16:59.899Z,99500.19
2022-08-19T00:19:26.769Z,99500.31
2022-08-19T00:21:54.475Z,99503.84
2022-08-19T00:24:21.429Z,99498.81
2022-08-19T00:26:48.567Z,99500.69
2022-08-19T00:29:20.839Z,99500.91
2022-08-19T00:31:48.146Z,99509.53
2022-08-19T00:34:17.583Z,99502.06
2022-08-19T00:36:45.432Z,99503.03
2022-08-19T00:39:13.540Z,99502.25
2022-08-19T00:41:41.499Z,99498.97
2022-08-19T00:44:10.098Z,99506.78
2022-08-19T00:46:41.771Z,99490.78
2022-08-19T00:49:28.543Z,99485.91
2022-08-19T00:52:13.376Z,99491.25
2022-08-19T00:54:41.680Z,99492.38
2022-08-19T00:57:15.814Z,99487.44
2022-08-19T00:59:56.244Z,99496.19
2022-08-19T01:02:30.793Z,99494.75
2022-08-19T01:04:58.032Z,99504.25
2022-08-19T01:07:25.266Z,99494.16
2022-08-19T01:09:52.764Z,99495.13
2022-08-19T01:12:20.349Z,99498.63
2022-08-19T01:14:49.001Z,99500.34
2022-08-19T01:17:17.651Z,99492.78
2022-08-19T01:19:47.745Z,99496.25
2022-08-19T01:22:40.648Z,99492.22
2022-08-19T01:25:09.490Z,99494.88
2022-08-19T01:27:48.416Z,99493.09
2022-08-19T01:30:22.588Z,99484.56
2022-08-19T01:32:51.054Z,99486.28
2022-08-19T01:35:19.328Z,99484.56
2022-08-19T01:37:58.722Z,99493.19
2022-08-19T01:40:31.817Z,99492.34
2022-08-19T01:42:59.099Z,99493.38
2022-08-19T01:45:29.146Z,99498.41
2022-08-19T01:48:02.303Z,99491.59
2022-08-19T01:50:34.270Z,99489.09
2022-08-19T01:53:06.477Z,99492.63
2022-08-19T01:55:41.030Z,99483.22
2022-08-19T01:58:17.599Z,99478.09
2022-08-19T02:00:46.339Z,99478.16
2022-08-19T02:03:14.258Z,99477.31
2022-08-19T02:05:44.063Z,99479.75
2022-08-19T02:08:12.686Z,99478.91
2022-08-19T02:10:43.298Z,99482.25
2022-08-19T02:13:12.694Z,99488.22
2022-08-19T02:15:39.850Z,99482.41
2022-08-19T02:18:07.289Z,99487.41
2022-08-19T02:20:34.810Z,99479.69
2022-08-19T02:23:02.180Z,99479.69
2022-08-19T02:25:29.248Z,99480.41
2022-08-19T02:27:56.206Z,99483.84
2022-08-19T02:30:23.482Z,99488.03
2022-08-19T02:32:50.282Z,99484.69
2022-08-19T02:35:17.883Z,99484.50
2022-08-19T02:38:03.860Z,99483.63
2022-08-19T02:40:36.333Z,99491.25
2022-08-19T02:43:08.387Z,99499.78
2022-08-19T02:45:41.572Z,99493.66
2022-08-19T02:48:14.851Z,99492.00
2022-08-19T02:50:53.809Z,99499.59
2022-08-19T02:53:20.832Z,99502.91
2022-08-19T02:55:48.332Z,99496.09
2022-08-19T02:58:16.710Z,99496.16
2022-08-19T03:00:51.033Z,99495.13
2022-08-19T03:03:19.771Z,99494.44
2022-08-19T03:05:56.625Z,99493.47
2022-08-19T03:08:26.501Z,99501.19
2022-08-19T03:10:53.959Z,99500.34
2022-08-19T03:13:21.172Z,99502.91
2022-08-19T03:15:50.098Z,99496.94
2022-08-19T03:18:17.867Z,99502.16
2022-08-19T03:20:48.684Z,99504.66
2022-08-19T03:23:17.297Z,99496.38
2022-08-19T03:26:03.158Z,99502.44
2022-08-19T03:28:35.205Z,99505.16
2022-08-19T03:31:43.806Z,99507.72
2022-08-19T03:33:56.528Z,99510.47
2022-08-19T03:36:27.089Z,99505.34
2022-08-19T03:39:00.838Z,99505.47
2022-08-19T03:42:32.679Z,99507.34
2022-08-19T03:44:38.921Z,99508.25
2022-08-19T03:47:06.725Z,99503.09
2022-08-19T03:49:36.084Z,99507.41
2022-08-19T03:52:08.124Z,99499.78
2022-08-19T03:54:35.472Z,99498.03
2022-08-19T03:57:03.992Z,99494.66
2022-08-19T03:59:36.158Z,99498.16
2022-08-19T04:02:10.125Z,99498.22
2022-08-19T04:04:44.026Z,99501.78
2022-08-19T04:07:16.212Z,99509.41
2022-08-19T04:09:43.338Z,99513.63
2022-08-19T04:12:10.364Z,99507.75
2022-08-19T04:14:37.350Z,99503.50
2022-08-19T04:17:08.150Z,99507.75
2022-08-19T04:19:36.920Z,99520.75
2022-08-19T04:22:04.942Z,99517.22
2022-08-19T04:24:33.123Z,99523.19
2022-08-19T04:27:04.125Z,99518.03
2022-08-19T04:29:31.283Z,99519.81
2022-08-19T04:31:59.571Z,99528.31
2022-08-19T04:34:30.585Z,99527.44
2022-08-19T04:36:59.535Z,99531.72
2022-08-19T04:39:49.751Z,99530.75
2022-08-19T04:42:38.306Z,99536.94
2022-08-19T04:45:12.266Z,99537.78
2022-08-19T04:47:48.090Z,99538.59
2022-08-19T04:50:26.326Z,99536.03
2022-08-19T04:52:54.327Z,99526.50
2022-08-19T04:55:21.437Z,99534.94
2022-08-19T04:57:48.459Z,99543.53
2022-08-19T05:00:15.773Z,99566.50
2022-08-19T05:02:43.185Z,99560.34
2022-08-19T05:05:10.451Z,99569.78
2022-08-19T05:07:37.895Z,99572.31
2022-08-19T05:10:07.535Z,99562.72
2022-08-19T05:12:34.883Z,99563.41
2022-08-19T05:15:04.010Z,99567.66
2022-08-19T05:17:36.028Z,99570.22
2022-08-19T05:20:28.025Z,99575.19
2022-08-19T05:22:55.133Z,99583.59
2022-08-19T05:25:23.570Z,99585.06
2022-08-19T05:27:51.056Z,99580.63
2022-08-19T05:30:33.339Z,99582.81
2022-08-19T05:33:06.067Z,99579.91
2022-08-19T05:35:37.420Z,99581.25
2022-08-19T05:38:04.759Z,99582.59
2022-08-19T05:40:31.585Z,99577.09
2022-08-19T05:42:58.415Z,99582.78
2022-08-19T05:45:25.661Z,99581.53
2022-08-19T05:47:52.477Z,99569.22
2022-08-19T05:50:19.426Z,99573.16
2022-08-19T05:52:50.251Z,99561.72
2022-08-19T05:55:17.967Z,99570.03
2022-08-19T05:57:44.824Z,99563.66
2022-08-19T06:00:14.137Z,99571.13
2022-08-19T06:02:43.031Z,99573.41
2022-08-19T06:05:11.239Z,99570.47
2022-08-19T06:07:40.465Z,99570.88
2022-08-19T06:10:11.048Z,99571.31
2022-08-19T06:12:38.960Z,99579.38
2022-08-19T06:15:15.301Z,99584.69
2022-08-19T06:17:45.432Z,99580.66
2022-08-19T06:20:15.966Z,99579.94
2022-08-19T06:22:46.519Z,99580.13
2022-08-19T06:25:16.067Z,99579.41
2022-08-19T06:28:14.527Z,99586.47
2022-08-19T06:30:30.903Z,99584.00
2022-08-19T06:32:57.828Z,99588.44
2022-08-19T06:35:28.125Z,99575.69
2022-08-19T06:37:55.523Z,99581.75
2022-08-19T06:40:23.009Z,99588.69
2022-08-19T06:42:54.385Z,99580.41
2022-08-19T06:45:25.023Z,99582.44
2022-08-19T06:48:01.664Z,99591.25
2022-08-19T06:50:28.674Z,99581.16
2022-08-19T06:52:55.701Z,99592.44
2022-08-19T06:55:22.823Z,99586.84
2022-08-19T06:57:54.562Z,99591.56
2022-08-19T07:00:21.808Z,99592.41
2022-08-19T07:02:56.160Z,99595.56
2022-08-19T07:05:26.336Z,99594.09
2022-08-19T07:07:53.478Z,99599.38
2022-08-19T07:10:25.861Z,99606.47
2022-08-19T07:12:53.056Z,99607.25
2022-08-19T07:15:22.218Z,99616.06
2022-08-19T07:17:52.405Z,99616.56
2022-08-19T07:20:22.040Z,99618.16
2022-08-19T07:22:55.944Z,99616.94
2022-08-19T07:25:23.031Z,99618.63
2022-08-19T07:27:59.626Z,99617.28
2022-08-19T07:30:28.920Z,99619.88
2022-08-19T07:32:58.359Z,99622.69
2022-08-19T07:35:26.074Z,99627.63
2022-08-19T07:37:55.476Z,99622.97
2022-08-19T07:40:22.631Z,99617.75
2022-08-19T07:42:53.766Z,99623.06
2022-08-19T07:45:23.059Z,99621.16
2022-08-19T07:47:53.493Z,99631.34
2022-08-19T07:50:22.183Z,99632.28
2022-08-19T07:52:51.145Z,99636.97
2022-08-19T07:55:41.391Z,99636.09
2022-08-19T07:58:13.345Z,99630.78
2022-08-19T08:00:43.325Z,99637.91
2022-08-19T08:03:11.223Z,99640.44
2022-08-19T08:05:56.773Z,99641.78
2022-08-19T08:08:44.306Z,99630.78
2022-08-19T08:11:21.162Z,99626.38
2022-08-19T08:14:01.359Z,99625.75
2022-08-19T08:16:46.915Z,99633.25
2022-08-19T08:19:25.407Z,99635.75
2022-08-19T08:21:59.005Z,99639.03
2022-08-19T08:24:31.493Z,99641.38
2022-08-19T08:27:01.200Z,99643.66
2022-08-19T08:29:34.920Z,99648.63
2022-08-19T08:32:14.855Z,99648.72
2022-08-19T08:34:44.219Z,99648.50
2022-08-19T08:37:17.095Z,99655.66
2022-08-19T08:39:44.033Z,99650.34
2022-08-19T08:42:33.424Z,99652.84
2022-08-19T08:45:14.094Z,99658.56
2022-08-19T08:47:44.003Z,99652.25
2022-08-19T08:50:36.820Z,99648.63
2022-08-19T08:53:08.185Z,99644.97
2022-08-19T08:55:36.797Z,99649.47
2022-08-19T08:58:32.196Z,99647.84
2022-08-19T09:00:59.220Z,99650.38
2022-08-19T09:03:31.374Z,99663.09
2022-08-19T09:06:11.982Z,99650.78
2022-08-19T09:08:44.071Z,99657.00
2022-08-19T09:11:42.537Z,99651.00
2022-08-19T09:14:52.344Z,99646.66
2022-08-19T09:17:31.916Z,99641.44
2022-08-19T09:20:09.210Z,99653.16
2022-08-19T09:22:44.464Z,99642.50
2022-08-19T09:25:17.732Z,99648.19
2022-08-19T09:27:54.745Z,99653.03
2022-08-19T09:30:28.224Z,99663.31
2022-08-19T09:32:59.545Z,99655.22
2022-08-19T09:35:32.834Z,99653.09
2022-08-19T09:38:17.296Z,99655.69
2022-08-19T09:40:44.506Z,99658.03
2022-08-19T09:43:13.345Z,99663.28
2022-08-19T09:45:47.393Z,99662.75
2022-08-19T09:48:18.898Z,99658.75
2022-08-19T09:50:51.609Z,99656.66
2022-08-19T09:53:20.614Z,99662.13
2022-08-19T09:55:47.546Z,99649.88
2022-08-19T09:58:14.486Z,99657.34
2022-08-19T10:00:41.616Z,99654.41
2022-08-19T10:03:10.724Z,99659.56
2022-08-19T10:05:55.266Z,99655.44
2022-08-19T10:08:27.304Z,99656.84
2022-08-19T10:10:56.080Z,99653.69
2022-08-19T10:13:27.066Z,99653.22
2022-08-19T10:16:04.866Z,99652.34
2022-08-19T10:18:37.026Z,99648.59
2022-08-19T10:21:18.899Z,99642.81
2022-08-19T10:23:50.665Z,99639.78
2022-08-19T10:26:30.963Z,99645.09
2022-08-19T10:29:03.881Z,99634.19
2022-08-19T10:32:00.534Z,99627.34
2022-08-19T10:34:27.668Z,99624.41
2022-08-19T10:37:00.469Z,99620.28
2022-08-19T10:39:41.155Z,99627.72
2022-08-19T10:42:18.035Z,99623.91
2022-08-19T10:44:49.108Z,99623.31
2022-08-19T10:47:25.759Z,99620.88
2022-08-19T10:50:15.728Z,99628.84
2022-08-19T10:52:50.831Z,99631.75
2022-08-19T10:55:43.045Z,99632.34
2022-08-19T10:58:23.278Z,99629.91
2022-08-19T11:00:59.206Z,99622.13
2022-08-19T11:03:30.403Z,99624.22
2022-08-19T11:06:06.613Z,99631.97
2022-08-19T11:08:35.950Z,99616.00
2022-08-19T11:11:05.697Z,99614.72
2022-08-19T11:13:38.321Z,99617.16
2022-08-19T11:16:18.710Z,99614.31
2022-08-19T11:18:55.879Z,99612.94
2022-08-19T11:21:38.230Z,99622.53
2022-08-19T11:24:19.262Z,99618.25
2022-08-19T11:26:47.639Z,99632.16
2022-08-19T11:29:16.623Z,99618.16
2022-08-19T11:31:47.525Z,99615.16
2022-08-19T11:34:20.895Z,99608.19
2022-08-19T11:36:52.538Z,99608.81
2022-08-19T11:39:28.491Z,99616.00
2022-08-19T11:41:56.492Z,99610.66
2022-08-19T11:44:26.334Z,99612.91
2022-08-19T11:46:53.522Z,99596.13
2022-08-19T11:49:22.183Z,99590.19
2022-08-19T11:51:51.731Z,99593.47
2022-08-19T11:54:20.753Z,99599.63
2022-08-19T11:56:50.767Z,99593.63
2022-08-19T11:59:17.886Z,99598.94
2022-08-19T12:01:44.879Z,99599.03
2022-08-19T12:04:14.351Z,99592.94
2022-08-19T12:06:42.559Z,99589.06
2022-08-19T12:09:16.814Z,99596.59
2022-08-19T12:11:44.411Z,99592.13
2022-08-19T12:14:15.164Z,99601.44
2022-08-19T12:16:51.173Z,99599.34
2022-08-19T12:19:21.784Z,99597.88
2022-08-19T12:21:50.876Z,99598.44
2022-08-19T12:24:24.236Z,99592.78
2022-08-19T12:26:53.406Z,99592.44
2022-08-19T12:29:23.922Z,99580.84
2022-08-19T12:31:52.132Z,99583.66
2022-08-19T12:34:21.042Z,99585.00
2022-08-19T12:36:50.239Z,99577.75
2022-08-19T12:39:19.762Z,99577.59
2022-08-19T12:41:54.271Z,99569.03
2022-08-19T12:44:29.237Z,99567.03
2022-08-19T12:47:00.733Z,99569.78
2022-08-19T12:49:52.111Z,99574.97
2022-08-19T12:52:22.432Z,99565.31
2022-08-19T12:54:54.516Z,99569.59
2022-08-19T12:57:32.530Z,99571.78
2022-08-19T13:00:10.336Z,99568.00
2022-08-19T13:02:39.275Z,99568.53
2022-08-19T13:05:09.494Z,99575.97
2022-08-19T13:07:39.363Z,99565.44
2022-08-19T13:10:16.367Z,99567.59
2022-08-19T13:12:45.602Z,99564.16
2022-08-19T13:15:13.182Z,99559.84
2022-08-19T13:17:43.087Z,99555.41
2022-08-19T13:20:11.842Z,99557.59
2022-08-19T13:22:39.681Z,99565.38
2022-08-19T13:25:08.488Z,99563.22
2022-08-19T13:27:36.476Z,99560.75
2022-08-19T13:30:26.160Z,99555.00
2022-08-19T13:33:11.434Z,99553.69
2022-08-19T13:35:41.306Z,99566.56
2022-08-19T13:38:11.924Z,99557.00
2022-08-19T13:40:41.256Z,99564.88
2022-08-19T13:43:13.659Z,99564.34
2022-08-19T13:45:56.772Z,99557.69
2022-08-19T13:48:27.271Z,99548.41
2022-08-19T13:50:54.990Z,99548.13
2022-08-19T13:53:22.296Z,99554.59
2022-08-19T13:55:50.906Z,99544.13
2022-08-19T13:58:17.740Z,99550.47
2022-08-19T14:00:47.272Z,99545.19
2022-08-19T14:03:14.489Z,99544.97
2022-08-19T14:05:43.748Z,99553.16
2022-08-19T14:08:11.108Z,99552.13
2022-08-19T14:10:38.419Z,99553.84
2022-08-19T14:13:05.563Z,99555.72
2022-08-19T14:15:35.730Z,99546.28
2022-08-19T14:18:02.639Z,99542.91
2022-08-19T14:20:29.939Z,99549.59
2022-08-19T14:22:56.844Z,99539.31
2022-08-19T14:25:29.056Z,99546.28
2022-08-19T14:27:57.773Z,99542.72
2022-08-19T14:30:36.166Z,99549.31
2022-08-19T14:33:03.727Z,99538.16
2022-08-19T14:35:35.614Z,99537.53
2022-08-19T14:38:15.355Z,99532.44
2022-08-19T14:40:43.034Z,99530.13
2022-08-19T14:43:09.811Z,99532.75
2022-08-19T14:45:40.747Z,99533.56
2022-08-19T14:48:17.817Z,99528.16
2022-08-19T14:50:46.485Z,99532.97
2022-08-19T14:53:13.656Z,99538.22
2022-08-19T14:55:45.585Z,99533.13
2022-08-19T14:58:29.712Z,99534.25
2022-08-19T15:01:00.236Z,99538.28
2022-08-19T15:03:28.068Z,99529.19
2022-08-19T15:05:58.424Z,99531.72
2022-08-19T15:08:27.069Z,99534.50
2022-08-19T15:10:54.791Z,99537.53
2022-08-19T15:13:22.301Z,99538.97
2022-08-19T15:15:51.455Z,99543.91
2022-08-19T15:18:21.313Z,99556.94
2022-08-19T15:20:50.208Z,99555.84
2022-08-19T15:23:19.094Z,99554.44
2022-08-19T15:25:46.921Z,99559.97
2022-08-19T15:28:17.140Z,99569.22
2022-08-19T15:30:44.507Z,99571.59
2022-08-19T15:33:15.267Z,99573.81
2022-08-19T15:35:45.108Z,99581.41
2022-08-19T15:38:13.947Z,99584.06
2022-08-19T15:40:42.616Z,99583.94
2022-08-19T15:43:09.548Z,99586.53
2022-08-19T15:45:37.817Z,99586.56
2022-08-19T15:48:08.559Z,99582.16
2022-08-19T15:50:35.860Z,99590.69
2022-08-19T15:53:08.632Z,99589.72
2022-08-19T15:55:43.652Z,99579.47
2022-08-19T15:58:32.508Z,99580.13
2022-08-19T16:01:23.693Z,99580.13
2022-08-19T16:04:14.768Z,99574.88
2022-08-19T16:06:53.242Z,99578.84
2022-08-19T16:09:27.850Z,99570.72
2022-08-19T16:12:02.527Z,99574.56
2022-08-19T16:14:32.977Z,99587.66
2022-08-19T16:17:02.736Z,99585.28
2022-08-19T16:19:36.478Z,99578.78
2022-08-19T16:22:06.778Z,99585.22
2022-08-19T16:24:55.008Z,99584.22
2022-08-19T16:27:22.608Z,99582.03
2022-08-19T16:29:50.798Z,99577.19
2022-08-19T16:32:19.736Z,99575.78
2022-08-19T16:34:47.745Z,99579.34
2022-08-19T16:37:17.020Z,99578.81
2022-08-19T16:39:45.286Z,99589.38
2022-08-19T16:42:13.941Z,99585.94
2022-08-19T16:44:45.172Z,99573.81
2022-08-19T16:47:13.597Z,99587.03
2022-08-19T16:49:53.211Z,99580.28
2022-08-19T16:52:26.197Z,99583.84
2022-08-19T16:54:53.613Z,99587.31
2022-08-19T16:57:20.730Z,99591.00
2022-08-19T16:59:49.542Z,99585.06
2022-08-19T17:02:23.578Z,99581.78
2022-08-19T17:04:59.256Z,99586.53
2022-08-19T17:07:27.982Z,99582.63
2022-08-19T17:09:57.130Z,99588.25
2022-08-19T17:12:31.749Z,99576.41
2022-08-19T17:15:04.828Z,99585.84
2022-08-19T17:17:31.989Z,99584.00
2022-08-19T17:20:00.584Z,99578.47
2022-08-19T17:22:28.021Z,99576.47
2022-08-19T17:24:58.062Z,99576.75
2022-08-19T17:27:31.631Z,99571.03
2022-08-19T17:30:02.514Z,99568.09
2022-08-19T17:32:30.736Z,99569.41
2022-08-19T17:34:57.682Z,99568.28
2022-08-19T17:37:28.523Z,99566.16
2022-08-19T17:39:56.213Z,99563.59
2022-08-19T17:42:24.217Z,99563.66
2022-08-19T17:44:51.237Z,99569.69
2022-08-19T17:47:19.667Z,99561.75
2022-08-19T17:49:47.221Z,99565.84
2022-08-19T17:52:15.226Z,99564.06
2022-08-19T17:54:42.797Z,99563.84
2022-08-19T17:57:10.308Z,99574.06
2022-08-19T17:59:37.684Z,99576.63
2022-08-19T18:02:07.508Z,99574.72
2022-08-19T18:04:46.785Z,99576.38
2022-08-19T18:10:50.427Z,99596.41
2022-08-19T18:13:29.913Z,99592.09
2022-08-19T18:16:01.329Z,99610.06
2022-08-19T18:44:00.458Z,99641.53
2022-08-19T18:47:52.746Z,99645.69
2022-08-19T18:50:39.344Z,99631.78
2022-08-19T18:53:30.544Z,99641.38
2022-08-19T18:56:36.285Z,99648.66
2022-08-19T19:02:45.304Z,99643.84
2022-08-19T19:06:00.562Z,99649.44
2022-08-19T19:08:40.096Z,99655.88
2022-08-19T19:11:12.191Z,99657.38
2022-08-19T19:13:56.805Z,99664.25
2022-08-19T19:16:44.313Z,99671.78
2022-08-19T19:19:25.532Z,99669.38
2022-08-19T19:22:26.483Z,99677.06
2022-08-19T19:27:58.358Z,99680.19
2022-08-19T19:30:47.103Z,99685.97
2022-08-19T19:33:30.385Z,99685.63
2022-08-19T19:36:33.410Z,99690.19
2022-08-19T19:39:11.410Z,99692.63
2022-08-19T19:42:21.507Z,99690.72
2022-08-19T19:45:04.317Z,99699.72
2022-08-19T19:47:31.351Z,99701.09
2022-08-19T19:50:14.405Z,99702.88
2022-08-19T19:53:13.671Z,99693.03
2022-08-19T19:55:44.810Z,99699.44
2022-08-19T19:58:29.310Z,99695.56
2022-08-19T20:01:09.420Z,99699.34
2022-08-19T20:03:58.794Z,99700.56
2022-08-19T20:06:34.552Z,99699.19
2022-08-19T20:09:20.197Z,99700.34
2022-08-19T20:11:58.336Z,99699.81
2022-08-19T20:14:38.488Z,99707.06
2022-08-19T20:17:12.786Z,99702.31
2022-08-19T20:25:29.135Z,99701.41
2022-08-19T20:28:02.066Z,99698.28
2022-08-19T20:30:33.103Z,99699.28
2022-08-19T20:33:06.799Z,99699.56
2022-08-19T20:35:44.381Z,99704.00
2022-08-19T20:38:16.125Z,99697.41
2022-08-19T20:41:04.267Z,99707.97
2022-08-19T20:43:34.232Z,99706.44
2022-08-19T20:46:04.523Z,99716.09
2022-08-19T20:48:31.890Z,99712.91
2022-08-19T20:50:59.844Z,99715.69
2022-08-19T20:53:27.371Z,99705.59
2022-08-19T20:55:58.707Z,99713.44
2022-08-19T20:58:29.444Z,99709.38
2022-08-19T21:01:00.480Z,99718.16
2022-08-19T21:03:43.395Z,99716.66
2022-08-19T21:06:15.197Z,99717.78
2022-08-19T21:08:43.719Z,99713.56
2022-08-19T21:11:17.375Z,99706.03
2022-08-19T21:13:48.370Z,99695.00
2022-08-19T21:16:23.197Z,99698.69
2022-08-19T21:18:52.909Z,99706.47
2022-08-19T21:21:29.879Z,99694.63
2022-08-19T21:23:56.977Z,99704.31
2022-08-19T21:26:33.151Z,99700.03
2022-08-19T21:29:06.966Z,99701.97
2022-08-19T21:31:33.995Z,99701.31
2022-08-19T21:34:01.430Z,99698.06
2022-08-19T21:36:28.640Z,99701.72
2022-08-19T21:38:58.358Z,99703.66
2022-08-19T21:41:34.357Z,99696.16
2022-08-19T21:44:01.398Z,99701.47
2022-08-19T21:46:31.248Z,99705.06
2022-08-19T21:49:00.199Z,99705.25
2022-08-19T21:51:27.121Z,99700.34
2022-08-19T21:53:54.520Z,99707.25
2022-08-19T21:56:21.530Z,99704.03
2022-08-19T21:58:48.521Z,99713.50
2022-08-19T22:01:18.529Z,99714.47
2022-08-19T22:03:45.372Z,99719.63
2022-08-19T22:06:12.333Z,99721.41
2022-08-19T22:08:48.219Z,99722.31
2022-08-19T22:11:17.813Z,99724.00
2022-08-19T22:13:45.377Z,99722.31
2022-08-19T22:16:14.028Z,99731.75
2022-08-19T22:18:41.001Z,99722.31
2022-08-19T22:21:11.661Z,99723.06
2022-08-19T22:23:41.857Z,99729.03
2022-08-19T22:26:08.843Z,99729.03
2022-08-19T22:28:35.722Z,99721.31
2022-08-19T22:31:02.643Z,99729.03
2022-08-19T22:33:32.222Z,99725.44
2022-08-19T22:36:00.309Z,99723.91
2022-08-19T22:38:27.342Z,99716.16
2022-08-19T22:40:56.342Z,99726.44
2022-08-19T22:43:30.131Z,99734.19
2022-08-19T22:45:59.247Z,99734.38
2022-08-19T22:48:30.631Z,99735.25
2022-08-19T22:51:17.128Z,99734.56
2022-08-19T22:53:46.927Z,99748.50
2022-08-19T22:56:18.077Z,99743.50
2022-08-19T22:58:46.981Z,99747.97
2022-08-19T23:01:27.275Z,99749.88
2022-08-19T23:03:57.278Z,99752.72
2022-08-19T23:06:26.927Z,99752.22
2022-08-19T23:09:04.877Z,99758.47
2022-08-19T23:11:41.582Z,99751.69
2022-08-19T23:14:10.368Z,99748.75
2022-08-19T23:16:37.220Z,99755.75
2022-08-19T23:19:04.592Z,99749.91
2022-08-19T23:21:31.418Z,99751.72
2022-08-19T23:23:58.730Z,99751.88
2022-08-19T23:26:25.556Z,99749.69
2022-08-19T23:29:11.062Z,99743.75
2022-08-19T23:31:37.937Z,99736.31
2022-08-19T23:34:05.887Z,99743.19
2022-08-19T23:36:32.740Z,99730.44
2022-08-19T23:39:00.737Z,99741.75
2022-08-19T23:41:28.000Z,99745.41
2022-08-19T23:43:55.180Z,99733.56
2022-08-19T23:46:27.475Z,99740.38
2022-08-19T23:48:56.725Z,99744.91
2022-08-19T23:51:26.724Z,99742.31
2022-08-19T23:53:54.030Z,99745.81
2022-08-19T23:56:21.497Z,99745.97
2022-08-19T23:58:49.041Z,99731.28
